Time;durP1;ratioP1;P1;durP2;ratioP2;P2;SDS_P1;SDS_P2;PMS_P1;PMS_P2;Temp;Humidity;BMP_temperature;BMP_pressure;BME280_temperature;BME280_humidity;BME280_pressure;Samples;Min_cycle;Max_cycle;Signal;HPM_P1;HPM_P2
2021/04/24 04:49:25;;;;;;;8.35;3.70;;;;;;;;;;6288579;22;20094;-83
2021/04/24 04:51:51;;;;;;;6.82;3.35;;;;;;;;;;6294538;22;20011;-83
2021/04/24 04:54:17;;;;;;;8.82;3.67;;;;;;;;;;6267509;22;20023;-83
2021/04/24 04:56:42;;;;;;;4.75;2.88;;;;;;;;;;6268856;22;20015;-83
2021/04/24 04:59:08;;;;;;;6.85;3.30;;;;;;;;;;6268351;22;20019;-83
2021/04/24 05:01:34;;;;;;;7.60;3.15;;;;;;;;;;6263143;22;19999;-83
2021/04/24 05:03:59;;;;;;;6.82;3.08;;;;;;;;;;6289769;22;19999;-84
2021/04/24 05:06:25;;;;;;;5.88;3.13;;;;;;;;;;6288613;22;20059;-85
2021/04/24 05:08:51;;;;;;;7.38;3.13;;;;;;;;;;6262677;22;20006;-82
2021/04/24 05:11:16;;;;;;;11.48;3.63;;;;;;;;;;6261751;22;20031;-84
2021/04/24 05:13:42;;;;;;;10.90;3.50;;;;;;;;;;6263896;22;20004;-84
2021/04/24 05:16:09;;;;;;;7.28;3.35;;;;;;;;;;6267945;22;20027;-84
2021/04/24 05:18:34;;;;;;;6.65;3.10;;;;;;;;;;6295742;22;19999;-83
2021/04/24 05:21:00;;;;;;;9.77;3.50;;;;;;;;;;6265863;22;20436;-83
2021/04/24 05:23:26;;;;;;;5.72;3.38;;;;;;;;;;6288509;22;20055;-84
2021/04/24 05:25:51;;;;;;;7.45;3.60;;;;;;;;;;6261463;22;20042;-83
2021/04/24 05:28:17;;;;;;;6.22;2.80;;;;;;;;;;6288454;22;20037;-83
2021/04/24 05:30:43;;;;;;;8.10;3.90;;;;;;;;;;6262608;22;20007;-83
2021/04/24 05:33:08;;;;;;;7.78;3.33;;;;;;;;;;6262212;22;20018;-83
2021/04/24 05:35:34;;;;;;;6.72;3.25;;;;;;;;;;6289094;22;20023;-83
2021/04/24 05:38:00;;;;;;;7.03;3.22;;;;;;;;;;6288803;22;19999;-83
2021/04/24 05:40:26;;;;;;;8.23;3.33;;;;;;;;;;6288371;22;20022;-83
2021/04/24 05:42:52;;;;;;;7.38;3.58;;;;;;;;;;6260620;22;20394;-83
2021/04/24 05:45:18;;;;;;;8.40;3.45;;;;;;;;;;6253064;22;20007;-83
2021/04/24 05:47:48;;;;;;;6.28;3.65;;;;;;;;;;6253479;22;20338;-83
2021/04/24 05:50:14;;;;;;;6.13;3.35;;;;;;;;;;6253048;22;20033;-83
2021/04/24 05:52:40;;;;;;;10.75;4.20;;;;;;;;;;6278951;22;20521;-83
2021/04/24 05:55:09;;;;;;;7.60;3.70;;;;;;;;;;6278854;22;20072;-83
2021/04/24 05:57:35;;;;;;;5.85;3.30;;;;;;;;;;6279849;22;20004;-83
2021/04/24 06:00:01;;;;;;;7.25;3.65;;;;;;;;;;6278625;22;20000;-83
2021/04/24 06:02:26;;;;;;;8.20;4.10;;;;;;;;;;6251983;22;20095;-83
2021/04/24 06:04:52;;;;;;;7.78;3.65;;;;;;;;;;6279425;22;20000;-83
2021/04/24 06:07:18;;;;;;;7.18;3.67;;;;;;;;;;6251487;22;20004;-83
2021/04/24 06:09:44;;;;;;;7.78;4.10;;;;;;;;;;6252732;22;20054;-83
2021/04/24 06:12:09;;;;;;;9.95;3.95;;;;;;;;;;6279209;22;19999;-83
2021/04/24 06:14:35;;;;;;;8.27;3.72;;;;;;;;;;6251938;22;19999;-83
2021/04/24 06:17:01;;;;;;;8.50;3.47;;;;;;;;;;6277918;22;20377;-84
2021/04/24 06:19:36;;;;;;;8.80;3.83;;;;;;;;;;6257103;22;20022;-83
2021/04/24 06:25:35;;;;;;;8.63;3.45;;;;;;;;;;6299100;22;20026;-83
2021/04/24 06:28:51;;;;;;;11.18;3.13;;;;;;;;;;6173261;23;20033;-82
2021/04/24 06:31:43;;;;;;;5.78;3.13;;;;;;;;;;6263217;22;20060;-82
2021/04/24 06:34:16;;;;;;;7.85;3.22;;;;;;;;;;6268031;22;20019;-82
2021/04/24 06:36:46;;;;;;;7.95;3.70;;;;;;;;;;6293496;22;20014;-83
2021/04/24 06:39:16;;;;;;;12.15;3.20;;;;;;;;;;6260784;22;20007;-82
2021/04/24 06:41:52;;;;;;;9.73;3.85;;;;;;;;;;6290061;22;20014;-82
2021/04/24 06:44:18;;;;;;;10.02;3.97;;;;;;;;;;6267285;22;20010;-83
2021/04/24 06:46:47;;;;;;;8.18;3.45;;;;;;;;;;6267771;22;20016;-83
2021/04/24 06:49:13;;;;;;;9.15;4.25;;;;;;;;;;6244325;22;20071;-83
2021/04/24 06:51:42;;;;;;;7.43;3.10;;;;;;;;;;6293598;22;20003;-83
2021/04/24 06:55:08;;;;;;;7.43;3.72;;;;;;;;;;6287864;22;20022;-82
2021/04/24 06:57:44;;;;;;;7.65;4.28;;;;;;;;;;6242754;22;20015;-82
2021/04/24 07:00:32;;;;;;;7.68;4.00;;;;;;;;;;6294308;22;20019;-82
2021/04/24 07:02:58;;;;;;;6.75;3.83;;;;;;;;;;6263047;22;19999;-82
2021/04/24 07:05:49;;;;;;;6.57;2.92;;;;;;;;;;6283747;22;20011;-83
2021/04/24 07:08:15;;;;;;;18.52;4.70;;;;;;;;;;6244184;22;20030;-82
2021/04/24 07:23:24;;;;;;;6.40;3.67;;;;;;;;;;5171051;27;20384;-83
2021/04/24 07:26:00;;;;;;;8.45;3.78;;;;;;;;;;5140491;27;20047;-83
2021/04/24 07:28:26;;;;;;;8.13;3.33;;;;;;;;;;5131092;27;20025;-83
2021/04/24 07:30:52;;;;;;;6.43;3.10;;;;;;;;;;5126269;27;20489;-84
2021/04/24 07:33:17;;;;;;;7.13;3.55;;;;;;;;;;5130948;27;20049;-83
2021/04/24 07:35:43;;;;;;;13.88;4.05;;;;;;;;;;5128715;27;20019;-83
2021/04/24 07:38:09;;;;;;;8.98;3.88;;;;;;;;;;5130421;27;20028;-83
2021/04/24 07:40:35;;;;;;;7.05;3.15;;;;;;;;;;5137438;27;20023;-84
2021/04/24 07:43:00;;;;;;;7.40;3.42;;;;;;;;;;5130275;27;20055;-83
2021/04/24 07:45:26;;;;;;;7.95;3.13;;;;;;;;;;5133206;27;20042;-83
2021/04/24 07:47:52;;;;;;;6.75;3.13;;;;;;;;;;5126565;27;20087;-83
2021/04/24 07:50:18;;;;;;;8.50;3.17;;;;;;;;;;5132158;27;20031;-83
2021/04/24 07:52:45;;;;;;;6.18;2.85;;;;;;;;;;5129577;27;20016;-83
2021/04/24 07:55:11;;;;;;;6.20;3.13;;;;;;;;;;5130411;27;20024;-83
2021/04/24 07:57:36;;;;;;;6.43;3.05;;;;;;;;;;5129175;27;20008;-83
2021/04/24 08:00:04;;;;;;;7.25;3.10;;;;;;;;;;5132703;27;20084;-83
2021/04/24 08:02:29;;;;;;;7.97;2.97;;;;;;;;;;5126524;27;20047;-83
2021/04/24 08:04:55;;;;;;;5.25;2.45;;;;;;;;;;5131494;27;20111;-83
2021/04/24 08:07:21;;;;;;;6.55;3.03;;;;;;;;;;5131189;27;20027;-83
2021/04/24 08:09:46;;;;;;;7.75;3.30;;;;;;;;;;5133085;27;20119;-83
2021/04/24 08:12:12;;;;;;;7.97;3.28;;;;;;;;;;5133368;27;20083;-83
2021/04/24 08:14:38;;;;;;;5.95;3.25;;;;;;;;;;5128865;27;20042;-84
2021/04/24 08:17:04;;;;;;;12.20;3.13;;;;;;;;;;5133428;27;20016;-83
2021/04/24 08:19:29;;;;;;;8.93;3.45;;;;;;;;;;5127863;27;20090;-83
2021/04/24 08:21:56;;;;;;;7.55;2.92;;;;;;;;;;5139438;27;20035;-83
2021/04/24 08:24:22;;;;;;;7.65;3.30;;;;;;;;;;5120193;27;20050;-83
2021/04/24 08:26:48;;;;;;;5.47;3.45;;;;;;;;;;5114635;27;20024;-83
2021/04/24 08:29:14;;;;;;;9.75;3.72;;;;;;;;;;5116631;27;20027;-84
2021/04/24 08:31:42;;;;;;;8.25;3.58;;;;;;;;;;5112194;27;20084;-83
2021/04/24 08:34:08;;;;;;;7.43;3.80;;;;;;;;;;5123757;27;20044;-83
2021/04/24 08:36:34;;;;;;;10.43;3.30;;;;;;;;;;5118559;27;20020;-84
2021/04/24 08:38:59;;;;;;;8.48;3.53;;;;;;;;;;5117881;27;20027;-83
2021/04/24 08:43:44;;;;;;;9.68;3.92;;;;;;;;;;5049240;28;20398;-81
2021/04/24 08:46:09;;;;;;;9.40;3.83;;;;;;;;;;5047726;28;20409;-82
2021/04/24 08:48:35;;;;;;;7.45;3.85;;;;;;;;;;5039095;28;20022;-82
2021/04/24 08:51:01;;;;;;;12.32;4.45;;;;;;;;;;5037016;28;20030;-82
2021/04/24 08:53:27;;;;;;;11.07;3.97;;;;;;;;;;5040159;28;20049;-82
2021/04/24 08:55:53;;;;;;;8.55;4.32;;;;;;;;;;5041408;28;20030;-81
2021/04/24 08:58:20;;;;;;;8.25;4.53;;;;;;;;;;5043150;28;20040;-82
2021/04/24 09:00:47;;;;;;;11.30;3.85;;;;;;;;;;5040417;28;20031;-84
2021/04/24 09:03:21;;;;;;;8.27;3.50;;;;;;;;;;5036163;28;20031;-84
2021/04/24 09:05:48;;;;;;;11.68;4.57;;;;;;;;;;5036036;28;20045;-84
2021/04/24 09:08:13;;;;;;;7.05;3.95;;;;;;;;;;5038172;28;20025;-84
2021/04/24 09:10:39;;;;;;;11.48;4.25;;;;;;;;;;5037926;28;20025;-84
2021/04/24 09:13:06;;;;;;;7.57;3.50;;;;;;;;;;5038882;28;20086;-84
2021/04/24 09:15:31;;;;;;;9.90;4.50;;;;;;;;;;5043045;28;20103;-84
2021/04/24 09:17:57;;;;;;;7.22;3.35;;;;;;;;;;5042116;28;20025;-84
2021/04/24 09:20:24;;;;;;;9.15;3.45;;;;;;;;;;5038494;28;20029;-84
2021/04/24 09:23:00;;;;;;;9.35;4.15;;;;;;;;;;5035678;28;20037;-84
2021/04/24 09:25:58;;;;;;;8.77;4.20;;;;;;;;;;5037697;28;20030;-84
2021/04/24 09:28:32;;;;;;;10.70;4.15;;;;;;;;;;5031802;28;20032;-84
2021/04/24 09:30:58;;;;;;;8.45;4.00;;;;;;;;;;5032906;28;20053;-84
2021/04/24 09:33:29;;;;;;;12.32;4.18;;;;;;;;;;5045636;28;20025;-85
2021/04/24 09:35:55;;;;;;;8.25;4.72;;;;;;;;;;5038465;28;20505;-84
2021/04/24 09:38:31;;;;;;;7.38;3.78;;;;;;;;;;5050029;28;20021;-84
2021/04/24 09:41:01;;;;;;;11.98;4.10;;;;;;;;;;5033234;28;20034;-84
2021/04/24 09:43:26;;;;;;;10.63;4.30;;;;;;;;;;5029242;28;20025;-84
2021/04/24 09:45:52;;;;;;;6.57;3.70;;;;;;;;;;5043534;28;20032;-83
2021/04/24 09:48:18;;;;;;;6.88;3.47;;;;;;;;;;5047400;28;20029;-84
2021/04/24 09:50:44;;;;;;;9.35;4.00;;;;;;;;;;5035982;28;20052;-84
2021/04/24 09:53:15;;;;;;;7.85;4.53;;;;;;;;;;5032946;28;20033;-82
2021/04/24 09:55:41;;;;;;;8.15;3.92;;;;;;;;;;5017411;28;20592;-84
2021/04/24 09:58:27;;;;;;;9.98;4.22;;;;;;;;;;5022036;28;20030;-84
2021/04/24 10:00:52;;;;;;;8.60;3.92;;;;;;;;;;5013171;28;20030;-84
2021/04/24 10:03:40;;;;;;;6.93;3.67;;;;;;;;;;5013709;28;20034;-83
2021/04/24 10:08:25;;;;;;;8.10;4.32;;;;;;;;;;5131517;27;20338;-82
2021/04/24 10:10:51;;;;;;;8.25;4.35;;;;;;;;;;5098606;28;20035;-84
2021/04/24 10:13:16;;;;;;;9.32;3.90;;;;;;;;;;5100321;28;20029;-81
2021/04/24 10:15:43;;;;;;;6.88;3.55;;;;;;;;;;5109329;28;20020;-81
2021/04/24 10:18:10;;;;;;;21.60;4.30;;;;;;;;;;5092827;28;20008;-81
2021/04/24 10:20:37;;;;;;;11.05;4.57;;;;;;;;;;5092519;28;20128;-81
2021/04/24 10:23:04;;;;;;;7.35;4.30;;;;;;;;;;5091327;28;20016;-82
2021/04/24 10:25:30;;;;;;;8.95;4.57;;;;;;;;;;5075924;28;20031;-82
2021/04/24 10:27:56;;;;;;;9.40;3.13;;;;;;;;;;5081227;28;20028;-81
2021/04/24 10:30:22;;;;;;;11.93;4.28;;;;;;;;;;5077488;28;20033;-82
2021/04/24 10:32:48;;;;;;;8.32;4.25;;;;;;;;;;5101592;28;20028;-81
2021/04/24 10:35:14;;;;;;;8.07;4.65;;;;;;;;;;5097861;28;20039;-81
2021/04/24 10:37:41;;;;;;;7.75;4.60;;;;;;;;;;5074799;28;20050;-81
2021/04/24 10:40:09;;;;;;;7.68;4.13;;;;;;;;;;5098343;28;20008;-81
2021/04/24 10:42:35;;;;;;;11.32;4.68;;;;;;;;;;5079035;28;20075;-81
2021/04/24 10:45:06;;;;;;;6.80;3.75;;;;;;;;;;5069285;28;20017;-81
2021/04/24 10:47:38;;;;;;;13.73;4.68;;;;;;;;;;5092947;28;20020;-81
2021/04/24 10:50:04;;;;;;;7.68;4.40;;;;;;;;;;5088692;28;20036;-81
2021/04/24 10:52:30;;;;;;;9.35;4.55;;;;;;;;;;5083489;28;20024;-82
2021/04/24 10:55:14;;;;;;;6.75;4.07;;;;;;;;;;5096275;28;20024;-81
2021/04/24 10:57:44;;;;;;;10.68;4.63;;;;;;;;;;5083887;28;20054;-82
2021/04/24 11:00:10;;;;;;;6.38;3.90;;;;;;;;;;5092544;28;20084;-82
2021/04/24 11:02:44;;;;;;;15.07;4.70;;;;;;;;;;5082866;28;20020;-83
2021/04/24 11:05:22;;;;;;;9.82;4.07;;;;;;;;;;5063894;28;20016;-84
2021/04/24 11:07:48;;;;;;;5.75;3.88;;;;;;;;;;5069462;28;20077;-83
2021/04/24 11:10:13;;;;;;;8.75;4.60;;;;;;;;;;5092391;28;20427;-84
2021/04/24 11:12:43;;;;;;;8.07;3.53;;;;;;;;;;5058484;28;20102;-85
2021/04/24 11:15:10;;;;;;;8.77;4.35;;;;;;;;;;5084290;28;20040;-85
2021/04/24 11:17:39;;;;;;;10.02;3.70;;;;;;;;;;5087325;28;20107;-85
2021/04/24 11:20:07;;;;;;;9.57;4.22;;;;;;;;;;5047501;28;20576;-84
2021/04/24 11:22:42;;;;;;;8.85;4.07;;;;;;;;;;5064098;28;20028;-85
2021/04/24 11:25:17;;;;;;;7.63;3.75;;;;;;;;;;5062051;28;20047;-84
2021/04/24 11:28:02;;;;;;;9.38;4.05;;;;;;;;;;5057494;28;20036;-85
2021/04/24 11:30:46;;;;;;;10.13;3.47;;;;;;;;;;5067005;28;20025;-85
2021/04/24 11:33:30;;;;;;;10.20;4.57;;;;;;;;;;5070174;28;20021;-85
2021/04/24 11:36:15;;;;;;;12.18;4.45;;;;;;;;;;5073979;28;20058;-85
2021/04/24 11:39:03;;;;;;;5.97;3.88;;;;;;;;;;5055583;28;20024;-84
2021/04/24 11:41:35;;;;;;;6.97;4.60;;;;;;;;;;5041533;28;20028;-83
2021/04/24 11:44:23;;;;;;;11.40;5.05;;;;;;;;;;5044855;28;20024;-85
2021/04/24 11:46:50;;;;;;;9.98;4.88;;;;;;;;;;5073437;28;20099;-83
2021/04/24 11:49:15;;;;;;;9.77;4.00;;;;;;;;;;5056999;28;20051;-84
2021/04/24 11:51:45;;;;;;;8.90;4.20;;;;;;;;;;5050357;28;20405;-84
2021/04/24 11:54:38;;;;;;;9.70;4.10;;;;;;;;;;5051565;28;20031;-83
2021/04/24 11:57:08;;;;;;;7.38;4.80;;;;;;;;;;5052408;28;20027;-84
2021/04/24 11:59:38;;;;;;;9.88;5.03;;;;;;;;;;5050944;28;20040;-84
2021/04/24 12:02:21;;;;;;;12.65;4.45;;;;;;;;;;5045641;28;20052;-84
2021/04/24 12:04:50;;;;;;;9.85;4.38;;;;;;;;;;5063193;28;20017;-84
2021/04/24 12:07:19;;;;;;;9.70;4.53;;;;;;;;;;5049975;28;20559;-84
2021/04/24 12:09:51;;;;;;;11.45;4.68;;;;;;;;;;5064222;28;20473;-84
2021/04/24 12:12:18;;;;;;;7.03;4.05;;;;;;;;;;5064335;28;20112;-84
2021/04/24 12:14:44;;;;;;;9.95;4.53;;;;;;;;;;5064529;28;20009;-84
2021/04/24 12:17:11;;;;;;;13.32;5.18;;;;;;;;;;5070268;28;20529;-81
2021/04/24 12:19:38;;;;;;;10.75;4.65;;;;;;;;;;5050300;28;20111;-83
2021/04/24 12:22:15;;;;;;;8.50;4.68;;;;;;;;;;5066932;28;20146;-83
2021/04/24 12:24:50;;;;;;;11.00;6.10;;;;;;;;;;5053245;28;20021;-82
2021/04/24 12:27:27;;;;;;;7.75;4.85;;;;;;;;;;5054474;28;20143;-83
2021/04/24 12:29:54;;;;;;;9.77;5.40;;;;;;;;;;5073971;28;20090;-82
2021/04/24 12:32:21;;;;;;;12.02;4.07;;;;;;;;;;5053505;28;20496;-83
2021/04/24 12:34:47;;;;;;;10.75;4.28;;;;;;;;;;5052604;28;20024;-82
2021/04/24 12:37:14;;;;;;;8.48;4.43;;;;;;;;;;5045466;28;20032;-81
2021/04/24 12:39:41;;;;;;;12.18;4.78;;;;;;;;;;5050740;28;20048;-83
2021/04/24 12:42:09;;;;;;;9.77;4.60;;;;;;;;;;5062991;28;20028;-82
2021/04/24 12:44:35;;;;;;;10.30;4.38;;;;;;;;;;5046819;28;20024;-82
2021/04/24 12:47:00;;;;;;;7.80;4.60;;;;;;;;;;5062470;28;20047;-83
2021/04/24 12:49:27;;;;;;;10.38;4.63;;;;;;;;;;5046963;28;20500;-83
2021/04/24 12:52:03;;;;;;;9.95;5.15;;;;;;;;;;5061607;28;20025;-83
2021/04/24 12:54:30;;;;;;;8.75;4.22;;;;;;;;;;5063781;28;20020;-81
2021/04/24 12:57:11;;;;;;;8.10;4.57;;;;;;;;;;5065469;28;20032;-81
2021/04/24 12:59:36;;;;;;;10.98;4.25;;;;;;;;;;5065634;28;20028;-83
2021/04/24 13:02:02;;;;;;;8.63;4.93;;;;;;;;;;5061607;28;20017;-83
2021/04/24 13:04:28;;;;;;;10.10;5.03;;;;;;;;;;5046114;28;20484;-81
2021/04/24 13:06:58;;;;;;;10.98;5.40;;;;;;;;;;5046092;28;20029;-82
2021/04/24 13:09:34;;;;;;;13.73;6.22;;;;;;;;;;5052007;28;20020;-83
2021/04/24 13:12:08;;;;;;;8.80;4.95;;;;;;;;;;5063943;28;20021;-82
2021/04/24 13:14:45;;;;;;;14.93;4.78;;;;;;;;;;5067306;28;20491;-81
2021/04/24 13:17:13;;;;;;;8.80;4.95;;;;;;;;;;5069027;28;20439;-82
2021/04/24 13:19:49;;;;;;;7.03;3.53;;;;;;;;;;5047186;28;20103;-82
2021/04/24 13:22:29;;;;;;;10.35;4.72;;;;;;;;;;5048139;28;20484;-83
2021/04/24 13:24:55;;;;;;;10.43;4.90;;;;;;;;;;5048375;28;20020;-83
2021/04/24 13:27:25;;;;;;;10.13;5.57;;;;;;;;;;5062686;28;20070;-82
2021/04/24 13:29:51;;;;;;;11.23;5.47;;;;;;;;;;5062675;28;20052;-83
2021/04/24 13:32:16;;;;;;;10.55;4.38;;;;;;;;;;5049878;28;20097;-82
2021/04/24 13:34:43;;;;;;;10.60;5.78;;;;;;;;;;5052963;28;20042;-83
2021/04/24 13:37:13;;;;;;;8.13;4.47;;;;;;;;;;5067204;28;20461;-83
2021/04/24 13:39:49;;;;;;;10.00;5.40;;;;;;;;;;5068840;28;20028;-83
2021/04/24 13:42:19;;;;;;;9.30;5.05;;;;;;;;;;5068697;28;20024;-84
2021/04/24 13:44:45;;;;;;;8.48;4.63;;;;;;;;;;5074511;28;20021;-85
2021/04/24 13:47:22;;;;;;;15.95;5.25;;;;;;;;;;5050186;28;20481;-83
2021/04/24 13:49:47;;;;;;;13.70;5.55;;;;;;;;;;5047307;28;20396;-83
2021/04/24 13:52:13;;;;;;;14.18;6.70;;;;;;;;;;5048825;28;20021;-83
2021/04/24 13:54:39;;;;;;;13.82;4.95;;;;;;;;;;5051767;28;20032;-83
2021/04/24 13:57:04;;;;;;;12.35;5.95;;;;;;;;;;5059604;28;20058;-84
2021/04/24 13:59:30;;;;;;;8.57;4.35;;;;;;;;;;5062421;28;20017;-83
2021/04/24 14:01:56;;;;;;;10.85;5.93;;;;;;;;;;5052655;28;20532;-83
2021/04/24 14:04:21;;;;;;;6.65;3.80;;;;;;;;;;5068073;28;20424;-83
2021/04/24 14:06:47;;;;;;;8.95;5.13;;;;;;;;;;5043500;28;20514;-83
2021/04/24 14:09:13;;;;;;;12.15;5.47;;;;;;;;;;5044867;28;20112;-83
2021/04/24 14:11:39;;;;;;;13.48;6.70;;;;;;;;;;5051243;28;20032;-83
2021/04/24 14:14:04;;;;;;;11.20;5.25;;;;;;;;;;5043881;28;20025;-84
2021/04/24 14:16:30;;;;;;;8.30;4.90;;;;;;;;;;5049546;28;20127;-83
2021/04/24 14:18:56;;;;;;;10.07;4.65;;;;;;;;;;5052428;28;20028;-83
2021/04/24 14:21:23;;;;;;;8.88;5.43;;;;;;;;;;5038319;28;20036;-83
2021/04/24 14:23:49;;;;;;;10.23;5.40;;;;;;;;;;5051397;28;20070;-83
2021/04/24 14:26:14;;;;;;;10.10;4.80;;;;;;;;;;5044125;28;20116;-83
2021/04/24 14:28:40;;;;;;;9.55;5.13;;;;;;;;;;5062131;28;20021;-83
2021/04/24 14:33:24;;;;;;;8.05;4.43;;;;;;;;;;5118969;27;20384;-82
2021/04/24 14:35:50;;;;;;;8.10;3.95;;;;;;;;;;5095429;28;20450;-82
2021/04/24 14:38:16;;;;;;;12.23;4.88;;;;;;;;;;5102865;28;20530;-83
2021/04/24 14:40:41;;;;;;;7.78;5.18;;;;;;;;;;5083670;28;20051;-82
2021/04/24 14:43:07;;;;;;;11.55;5.75;;;;;;;;;;5102277;28;20036;-82
2021/04/24 14:45:33;;;;;;;14.93;5.50;;;;;;;;;;5096653;28;20027;-82
2021/04/24 14:47:58;;;;;;;9.88;5.97;;;;;;;;;;5103340;28;20031;-82
2021/04/24 14:50:24;;;;;;;10.10;5.55;;;;;;;;;;5097623;28;20024;-82
2021/04/24 14:52:50;;;;;;;10.32;4.30;;;;;;;;;;5115342;28;20018;-82
2021/04/24 14:55:16;;;;;;;8.98;4.85;;;;;;;;;;5107075;28;20465;-82
2021/04/24 14:57:42;;;;;;;8.05;4.82;;;;;;;;;;5096412;28;20020;-82
2021/04/24 15:00:09;;;;;;;12.90;5.95;;;;;;;;;;5094923;28;20022;-82
2021/04/24 15:02:35;;;;;;;10.70;5.65;;;;;;;;;;5091972;27;20050;-83
2021/04/24 15:05:01;;;;;;;15.27;5.65;;;;;;;;;;5093564;28;20055;-85
2021/04/24 15:07:26;;;;;;;12.60;4.75;;;;;;;;;;5086275;28;20015;-85
2021/04/24 15:09:52;;;;;;;12.65;4.85;;;;;;;;;;5087491;28;20357;-85
2021/04/24 15:12:19;;;;;;;10.40;4.63;;;;;;;;;;5092825;28;20036;-87
2021/04/24 15:14:44;;;;;;;7.90;5.13;;;;;;;;;;5089442;28;20028;-87
2021/04/24 15:17:10;;;;;;;10.75;4.75;;;;;;;;;;5091002;28;20023;-87
2021/04/24 15:19:38;;;;;;;9.07;5.13;;;;;;;;;;5088656;28;20020;-87
2021/04/24 15:22:04;;;;;;;9.07;4.82;;;;;;;;;;5091956;28;20032;-87
2021/04/24 15:24:30;;;;;;;11.32;4.32;;;;;;;;;;5100254;28;20030;-87
2021/04/24 15:26:57;;;;;;;12.60;5.32;;;;;;;;;;5097513;28;20472;-87
2021/04/24 15:29:22;;;;;;;9.82;5.25;;;;;;;;;;5094725;28;20060;-87
2021/04/24 15:31:49;;;;;;;12.20;5.30;;;;;;;;;;5088195;28;20035;-87
2021/04/24 15:34:15;;;;;;;12.95;6.35;;;;;;;;;;5091823;28;20027;-87
2021/04/24 15:36:42;;;;;;;16.02;5.75;;;;;;;;;;5093523;28;20102;-87
2021/04/24 15:39:08;;;;;;;10.70;5.82;;;;;;;;;;5093656;28;20013;-87
2021/04/24 15:41:34;;;;;;;9.52;5.40;;;;;;;;;;5093485;28;20384;-87
2021/04/24 15:43:59;;;;;;;9.02;5.38;;;;;;;;;;5088474;28;20100;-87
2021/04/24 15:46:27;;;;;;;10.00;5.35;;;;;;;;;;5082691;28;20077;-87
2021/04/24 15:48:53;;;;;;;11.00;5.70;;;;;;;;;;5073408;28;20071;-87
2021/04/24 15:51:18;;;;;;;10.80;5.68;;;;;;;;;;5082825;28;20111;-89
2021/04/24 15:53:44;;;;;;;7.75;4.82;;;;;;;;;;5081821;28;20021;-86
2021/04/24 15:56:10;;;;;;;10.88;5.57;;;;;;;;;;5084950;28;20032;-88
2021/04/24 15:58:37;;;;;;;10.00;5.88;;;;;;;;;;5083209;28;20023;-87
2021/04/24 16:01:03;;;;;;;10.07;5.65;;;;;;;;;;5073767;28;20503;-87
2021/04/24 16:03:29;;;;;;;10.75;6.20;;;;;;;;;;5082280;28;20020;-87
2021/04/24 16:05:55;;;;;;;9.38;5.32;;;;;;;;;;5085417;28;20038;-86
2021/04/24 16:08:21;;;;;;;12.57;5.53;;;;;;;;;;5081092;28;20020;-87
2021/04/24 16:10:46;;;;;;;12.35;5.85;;;;;;;;;;5078958;28;20034;-86
2021/04/24 16:13:13;;;;;;;14.15;6.53;;;;;;;;;;5084079;28;20075;-87
2021/04/24 16:15:39;;;;;;;9.90;5.35;;;;;;;;;;5080601;28;20127;-87
2021/04/24 16:18:04;;;;;;;10.38;5.97;;;;;;;;;;5076633;28;20465;-86
2021/04/24 16:20:30;;;;;;;15.90;6.20;;;;;;;;;;5079329;28;20024;-86
2021/04/24 16:22:56;;;;;;;9.38;5.75;;;;;;;;;;5065921;28;20032;-86
2021/04/24 16:25:23;;;;;;;10.95;6.50;;;;;;;;;;5074854;28;20024;-87
2021/04/24 16:27:49;;;;;;;13.75;5.20;;;;;;;;;;5084085;28;20020;-87
2021/04/24 16:30:15;;;;;;;12.70;5.93;;;;;;;;;;5079048;28;20024;-87
2021/04/24 16:32:41;;;;;;;11.10;5.75;;;;;;;;;;5066198;28;20039;-88
2021/04/24 16:35:07;;;;;;;15.48;6.57;;;;;;;;;;5079560;28;20052;-86
2021/04/24 16:37:32;;;;;;;8.77;5.25;;;;;;;;;;5077594;28;20082;-87
2021/04/24 16:39:58;;;;;;;12.80;6.45;;;;;;;;;;5083269;28;20453;-87
2021/04/24 16:42:24;;;;;;;15.00;6.85;;;;;;;;;;5078022;28;20487;-87
2021/04/24 16:44:49;;;;;;;11.63;6.00;;;;;;;;;;5072158;28;20056;-86
2021/04/24 16:47:15;;;;;;;11.65;5.22;;;;;;;;;;5073792;28;20118;-87
2021/04/24 16:49:41;;;;;;;14.18;5.43;;;;;;;;;;5086585;28;20027;-85
2021/04/24 16:52:06;;;;;;;11.93;5.68;;;;;;;;;;5076288;28;20035;-87
2021/04/24 16:54:32;;;;;;;9.60;5.30;;;;;;;;;;5089009;28;20030;-87
2021/04/24 16:56:58;;;;;;;11.13;5.63;;;;;;;;;;5083293;28;20020;-87
2021/04/24 16:59:24;;;;;;;7.78;5.28;;;;;;;;;;5085684;28;20020;-85
2021/04/24 17:01:49;;;;;;;9.30;5.63;;;;;;;;;;5083267;22;20042;-86
2021/04/24 17:04:17;;;;;;;9.65;5.22;;;;;;;;;;5045870;28;20095;-85
2021/04/24 17:06:42;;;;;;;9.95;5.40;;;;;;;;;;5049619;28;20037;-86
2021/04/24 17:09:08;;;;;;;10.90;5.45;;;;;;;;;;5060953;28;20025;-84
2021/04/24 17:11:34;;;;;;;11.07;5.43;;;;;;;;;;5041493;28;20021;-84
2021/04/24 17:14:00;;;;;;;7.97;5.35;;;;;;;;;;5054216;28;20037;-83
2021/04/24 17:16:25;;;;;;;8.18;5.13;;;;;;;;;;5055852;28;20064;-83
2021/04/24 17:18:51;;;;;;;12.40;5.28;;;;;;;;;;5056934;28;20055;-83
2021/04/24 17:21:17;;;;;;;10.90;5.85;;;;;;;;;;5054315;28;20024;-84
2021/04/24 17:23:42;;;;;;;12.05;6.72;;;;;;;;;;5050926;28;20029;-84
2021/04/24 17:26:08;;;;;;;12.00;5.47;;;;;;;;;;5050728;28;20133;-83
2021/04/24 17:28:34;;;;;;;10.38;5.57;;;;;;;;;;5049239;28;20028;-83
2021/04/24 17:31:00;;;;;;;8.18;5.18;;;;;;;;;;5050425;28;20022;-83
2021/04/24 17:33:28;;;;;;;8.88;4.93;;;;;;;;;;5046628;28;20013;-83
2021/04/24 17:35:53;;;;;;;10.85;5.35;;;;;;;;;;5048351;28;20090;-83
2021/04/24 17:38:19;;;;;;;8.13;5.35;;;;;;;;;;5063742;28;20384;-83
2021/04/24 17:40:45;;;;;;;13.88;6.30;;;;;;;;;;5050314;28;20017;-83
2021/04/24 17:43:11;;;;;;;11.38;7.03;;;;;;;;;;5051588;28;20027;-83
2021/04/24 17:45:36;;;;;;;15.13;7.28;;;;;;;;;;5049419;28;20112;-83
2021/04/24 17:48:02;;;;;;;14.27;7.43;;;;;;;;;;5049303;28;20031;-86
2021/04/24 17:50:28;;;;;;;13.63;6.57;;;;;;;;;;5056748;28;20017;-81
2021/04/24 17:52:53;;;;;;;10.93;6.35;;;;;;;;;;5055120;28;20009;-84
2021/04/24 17:55:19;;;;;;;12.82;6.40;;;;;;;;;;5055220;28;20510;-84
2021/04/24 17:57:45;;;;;;;13.02;6.63;;;;;;;;;;5056185;28;20012;-84
2021/04/24 18:00:13;;;;;;;10.57;6.35;;;;;;;;;;5060146;28;20536;-84
2021/04/24 18:02:39;;;;;;;10.02;5.70;;;;;;;;;;5064082;28;20391;-84
2021/04/24 18:05:06;;;;;;;11.55;6.10;;;;;;;;;;5068292;28;20031;-84
2021/04/24 18:07:32;;;;;;;12.82;6.20;;;;;;;;;;5050802;28;20028;-84
2021/04/24 18:09:57;;;;;;;12.80;6.47;;;;;;;;;;5078936;28;20506;-84
2021/04/24 18:12:23;;;;;;;13.85;5.90;;;;;;;;;;5069190;28;20024;-84
2021/04/24 18:14:53;;;;;;;6.55;3.83;;;;;;;;;;5052050;28;20025;-84
2021/04/24 18:17:19;;;;;;;7.35;4.38;;;;;;;;;;5048976;28;20027;-85
2021/04/24 18:19:45;;;;;;;11.32;5.47;;;;;;;;;;5063677;28;20480;-84
2021/04/24 18:22:11;;;;;;;9.38;5.90;;;;;;;;;;5065883;28;20035;-84
2021/04/24 18:24:36;;;;;;;11.82;6.32;;;;;;;;;;5063172;28;20558;-84
2021/04/24 18:27:04;;;;;;;14.18;6.65;;;;;;;;;;5056385;28;20031;-85
2021/04/24 18:29:29;;;;;;;13.30;6.55;;;;;;;;;;5063336;28;20017;-84
2021/04/24 18:31:55;;;;;;;11.73;5.57;;;;;;;;;;5059341;28;20028;-84
2021/04/24 18:34:21;;;;;;;13.50;5.63;;;;;;;;;;5078398;28;20045;-84
2021/04/24 18:36:46;;;;;;;12.63;5.90;;;;;;;;;;5092506;28;20044;-84
2021/04/24 18:39:15;;;;;;;9.00;5.15;;;;;;;;;;5078906;28;20013;-84
2021/04/24 18:41:41;;;;;;;9.20;4.80;;;;;;;;;;5074769;28;20071;-84
2021/04/24 18:44:07;;;;;;;7.13;3.65;;;;;;;;;;5061131;28;20044;-84
2021/04/24 18:46:33;;;;;;;9.63;4.60;;;;;;;;;;5067747;28;20100;-84
2021/04/24 18:48:59;;;;;;;9.40;4.90;;;;;;;;;;5074785;28;20021;-84
2021/04/24 18:51:24;;;;;;;9.77;5.45;;;;;;;;;;5086092;28;20112;-84
2021/04/24 18:53:50;;;;;;;8.35;4.05;;;;;;;;;;5079998;28;20020;-84
2021/04/24 18:56:17;;;;;;;8.75;4.80;;;;;;;;;;5069257;28;20043;-84
2021/04/24 18:58:43;;;;;;;8.85;4.03;;;;;;;;;;5069758;28;20025;-84
2021/04/24 19:01:08;;;;;;;8.77;4.47;;;;;;;;;;5066737;28;20074;-84
2021/04/24 19:03:34;;;;;;;15.52;4.72;;;;;;;;;;5068328;28;20427;-85
2021/04/24 19:06:00;;;;;;;9.60;4.35;;;;;;;;;;5061524;28;20032;-84
2021/04/24 19:08:27;;;;;;;7.90;4.38;;;;;;;;;;5067264;28;20076;-84
2021/04/24 19:10:55;;;;;;;8.35;4.38;;;;;;;;;;5070600;28;20025;-84
2021/04/24 19:13:21;;;;;;;7.63;3.85;;;;;;;;;;5071428;28;20013;-84
2021/04/24 19:15:47;;;;;;;6.03;3.80;;;;;;;;;;5060934;28;20445;-84
2021/04/24 19:18:13;;;;;;;7.13;3.38;;;;;;;;;;5053012;28;20021;-84
2021/04/24 19:20:39;;;;;;;7.07;3.53;;;;;;;;;;5083126;28;20029;-84
2021/04/24 19:23:06;;;;;;;6.57;3.67;;;;;;;;;;5053366;28;20044;-85
2021/04/24 19:25:32;;;;;;;6.40;3.03;;;;;;;;;;5073743;28;20017;-84
2021/04/24 19:27:57;;;;;;;8.05;3.47;;;;;;;;;;5066595;28;20074;-84
2021/04/24 19:30:24;;;;;;;7.68;3.72;;;;;;;;;;5068826;28;20033;-84
2021/04/24 19:32:50;;;;;;;8.48;3.65;;;;;;;;;;5077550;28;20029;-85
2021/04/24 19:35:17;;;;;;;7.72;3.70;;;;;;;;;;5064152;28;20029;-84
2021/04/24 19:37:45;;;;;;;6.30;2.85;;;;;;;;;;5072965;28;20017;-84
2021/04/24 19:40:11;;;;;;;9.30;4.47;;;;;;;;;;5062403;28;20572;-83
2021/04/24 19:42:37;;;;;;;9.60;5.45;;;;;;;;;;5057383;28;20022;-84
2021/04/24 19:45:03;;;;;;;13.60;6.65;;;;;;;;;;5062815;28;20090;-84
2021/04/24 19:47:29;;;;;;;20.63;9.20;;;;;;;;;;5083391;28;20025;-84
2021/04/24 19:49:54;;;;;;;18.30;9.90;;;;;;;;;;5057031;28;20024;-84
2021/04/24 19:52:20;;;;;;;16.75;9.18;;;;;;;;;;5060471;28;20115;-84
2021/04/24 19:54:46;;;;;;;19.48;8.98;;;;;;;;;;5075653;28;20031;-84